Time;durP1;ratioP1;P1;durP2;ratioP2;P2;SDS_P1;SDS_P2;PMS_P1;PMS_P2;Temp;Humidity;BMP_temperature;BMP_pressure;BME280_temperature;BME280_humidity;BME280_pressure;Samples;Min_cycle;Max_cycle;Signal;HPM_P1;HPM_P2
2021/07/25 00:01:49;;;;;;;97.97;59.78;;;;;;;17.02;86.37;100913.03;5048442;28;20033;-63
2021/07/25 00:04:15;;;;;;;106.38;61.15;;;;;;;17.06;86.25;100914.69;5048434;28;20037;-64
2021/07/25 00:06:40;;;;;;;99.40;58.00;;;;;;;17.09;86.27;100915.47;5048477;28;20036;-64
2021/07/25 00:09:06;;;;;;;99.53;58.97;;;;;;;17.09;86.18;100907.50;5043067;28;20029;-64
2021/07/25 00:11:31;;;;;;;102.82;60.38;;;;;;;17.07;86.21;100904.03;5031815;28;20125;-65
2021/07/25 00:13:58;;;;;;;108.57;61.42;;;;;;;17.06;86.31;100904.06;5034107;28;20099;-65
2021/07/25 00:16:24;;;;;;;100.35;58.53;;;;;;;17.03;86.28;100906.78;5033164;28;20073;-64
2021/07/25 00:18:49;;;;;;;101.78;59.10;;;;;;;17.02;86.64;100905.91;5034752;28;20061;-64
2021/07/25 00:21:14;;;;;;;97.13;56.63;;;;;;;17.02;86.47;100908.56;5032178;28;20091;-64
2021/07/25 00:23:45;;;;;;;88.80;53.60;;;;;;;17.05;86.37;100907.59;5042093;28;20089;-65
2021/07/25 00:26:12;;;;;;;96.70;57.33;;;;;;;17.08;86.38;100908.41;5033514;28;20034;-64
2021/07/25 00:28:39;;;;;;;104.65;60.28;;;;;;;17.12;86.40;100915.34;5034278;28;20034;-64
2021/07/25 00:31:05;;;;;;;105.15;61.40;;;;;;;17.16;86.35;100913.50;5035678;28;20647;-63
2021/07/25 00:33:32;;;;;;;105.28;61.83;;;;;;;17.17;86.31;100915.25;5033395;28;20065;-63
2021/07/25 00:36:00;;;;;;;106.50;61.40;;;;;;;17.20;86.27;100911.63;5033305;28;21717;-64
2021/07/25 00:38:25;;;;;;;108.57;61.85;;;;;;;17.22;86.23;100907.13;5033575;28;20581;-63
2021/07/25 00:40:55;;;;;;;99.80;61.42;;;;;;;17.23;86.32;100916.88;5036635;28;20045;-64
2021/07/25 00:43:27;;;;;;;105.57;62.20;;;;;;;17.24;86.46;100914.16;5030542;28;20029;-64
2021/07/25 00:45:54;;;;;;;112.10;61.88;;;;;;;17.24;86.46;100916.81;5027671;28;20802;-64
2021/07/25 00:48:21;;;;;;;113.43;62.70;;;;;;;17.19;86.51;100908.13;5027828;28;20031;-64
2021/07/25 00:50:47;;;;;;;113.00;62.70;;;;;;;17.19;86.60;100908.13;5027976;28;20046;-64
2021/07/25 00:53:13;;;;;;;109.72;64.38;;;;;;;17.19;86.51;100897.50;5027651;28;20057;-64
2021/07/25 00:55:41;;;;;;;111.28;63.55;;;;;;;17.20;86.72;100904.56;5027761;28;20120;-64
2021/07/25 00:58:06;;;;;;;109.13;62.17;;;;;;;17.20;86.68;100895.69;5027608;28;20022;-64
2021/07/25 01:00:31;;;;;;;109.75;63.67;;;;;;;17.21;86.49;100889.47;5027648;28;20030;-65
2021/07/25 01:03:14;;;;;;;113.57;64.80;;;;;;;17.21;86.43;100884.19;5027421;28;20026;-64
2021/07/25 01:05:50;;;;;;;111.35;62.70;;;;;;;17.19;86.03;100893.97;5027633;28;20033;-64
2021/07/25 01:08:18;;;;;;;99.47;60.65;;;;;;;17.17;86.17;100894.00;5030199;28;20065;-63
2021/07/25 01:10:45;;;;;;;112.93;63.70;;;;;;;17.15;86.27;100893.19;5026744;28;20032;-63
2021/07/25 01:13:35;;;;;;;102.35;59.63;;;;;;;17.13;86.39;100895.00;5027180;28;20552;-64
2021/07/25 01:16:01;;;;;;;111.68;62.67;;;;;;;17.11;86.30;100886.22;5027455;28;20026;-64
2021/07/25 01:18:27;;;;;;;114.78;64.00;;;;;;;17.09;86.45;100886.25;5039973;28;20031;-64
2021/07/25 01:20:55;;;;;;;112.00;64.10;;;;;;;17.07;86.08;100877.47;5047045;28;20037;-65
2021/07/25 01:23:21;;;;;;;106.53;61.38;;;;;;;17.06;86.43;100877.50;5046916;28;20539;-64
2021/07/25 01:25:52;;;;;;;115.15;64.53;;;;;;;17.03;86.46;100867.84;5047073;28;20021;-64
2021/07/25 01:28:25;;;;;;;114.22;62.85;;;;;;;17.00;86.29;100862.63;5046927;28;20036;-63
2021/07/25 01:30:59;;;;;;;118.85;62.85;;;;;;;16.99;86.41;100873.28;5046948;28;20052;-65
2021/07/25 01:33:31;;;;;;;117.55;65.15;;;;;;;16.99;86.82;100876.78;5046754;28;20021;-64
2021/07/25 01:35:57;;;;;;;115.22;64.05;;;;;;;17.01;86.85;100880.28;5046907;28;20389;-64
2021/07/25 01:38:27;;;;;;;110.78;63.83;;;;;;;17.04;86.98;100876.69;5044730;28;20033;-64
2021/07/25 01:41:03;;;;;;;113.35;64.40;;;;;;;17.06;86.74;100881.03;5046075;28;20049;-63
2021/07/25 01:43:30;;;;;;;119.20;64.60;;;;;;;17.08;86.42;100889.81;5046539;28;20120;-63
2021/07/25 01:45:56;;;;;;;114.40;64.72;;;;;;;17.11;86.83;100891.53;5046752;28;20049;-63
2021/07/25 01:48:21;;;;;;;124.05;68.25;;;;;;;17.11;86.84;100889.75;5046445;28;20036;-64
2021/07/25 01:50:46;;;;;;;123.00;68.45;;;;;;;17.12;86.76;100890.59;5046548;28;20026;-64
2021/07/25 01:53:12;;;;;;;128.68;68.38;;;;;;;17.10;86.66;100890.63;5046397;28;20898;-63
2021/07/25 01:55:37;;;;;;;128.10;69.72;;;;;;;17.09;86.86;100883.59;5046243;28;20050;-64
2021/07/25 01:58:03;;;;;;;127.72;67.78;;;;;;;17.07;86.87;100890.75;5046505;28;20057;-63
2021/07/25 02:00:28;;;;;;;131.93;69.68;;;;;;;17.07;87.15;100888.09;5046187;28;20072;-63
2021/07/25 02:02:53;;;;;;;130.27;71.05;;;;;;;17.07;87.04;100881.88;5046176;28;20037;-63
2021/07/25 02:05:19;;;;;;;126.68;66.68;;;;;;;17.09;87.39;100885.41;5028450;28;20031;-64
2021/07/25 02:07:44;;;;;;;139.80;72.22;;;;;;;17.11;87.69;100883.56;5044739;28;20041;-64
2021/07/25 02:10:10;;;;;;;117.85;66.28;;;;;;;17.12;87.22;100878.19;5029218;28;20026;-65
2021/07/25 02:12:35;;;;;;;122.72;67.55;;;;;;;17.15;87.26;100875.47;5026201;28;20065;-64
2021/07/25 02:15:01;;;;;;;123.95;69.00;;;;;;;17.17;87.14;100879.88;5026104;28;20026;-63
2021/07/25 02:17:26;;;;;;;134.07;69.03;;;;;;;17.15;86.89;100875.47;5042023;28;20049;-64
2021/07/25 02:19:51;;;;;;;128.13;70.03;;;;;;;17.14;87.10;100879.03;5045853;28;20038;-64
2021/07/25 02:22:16;;;;;;;121.93;66.38;;;;;;;17.15;86.67;100867.50;5045700;28;20033;-64
2021/07/25 02:24:42;;;;;;;119.68;67.38;;;;;;;17.18;86.68;100870.97;5045853;28;20025;-63
2021/07/25 02:27:08;;;;;;;115.43;67.40;;;;;;;17.19;86.91;100860.31;5028120;28;20033;-64
2021/07/25 02:29:33;;;;;;;110.70;62.15;;;;;;;17.19;86.74;100855.00;5045551;28;20775;-63
2021/07/25 02:31:58;;;;;;;115.55;65.50;;;;;;;17.19;86.72;100856.81;5045860;28;20092;-63
2021/07/25 02:34:24;;;;;;;117.05;64.75;;;;;;;17.18;86.82;100860.34;5045617;28;20092;-64
2021/07/25 02:36:49;;;;;;;116.95;63.63;;;;;;;17.17;86.56;100864.81;5045740;28;20122;-64
2021/07/25 02:39:15;;;;;;;113.65;64.22;;;;;;;17.18;86.59;100868.31;5043741;28;20045;-63
2021/07/25 02:41:40;;;;;;;120.68;65.90;;;;;;;17.15;86.83;100858.66;5027472;28;20038;-64
2021/07/25 02:44:06;;;;;;;116.93;63.67;;;;;;;17.14;86.87;100849.84;5025701;28;20052;-64
2021/07/25 02:46:32;;;;;;;113.90;63.63;;;;;;;17.13;86.84;100850.75;5025747;28;20052;-63
2021/07/25 02:48:57;;;;;;;115.65;64.00;;;;;;;17.14;86.87;100843.63;5025651;28;20058;-64
2021/07/25 02:51:23;;;;;;;117.88;63.38;;;;;;;17.13;86.93;100842.78;5025714;28;20374;-63
2021/07/25 02:53:48;;;;;;;120.50;63.95;;;;;;;17.10;86.90;100832.22;5025441;28;20053;-63
2021/07/25 02:56:13;;;;;;;114.75;64.13;;;;;;;17.07;86.96;100828.78;5029008;28;20084;-63
2021/07/25 02:58:39;;;;;;;114.90;64.03;;;;;;;17.05;87.06;100836.84;5025524;28;20461;-63
2021/07/25 03:01:14;;;;;;;113.18;63.00;;;;;;;17.06;86.91;100848.31;5025509;28;20026;-65
2021/07/25 03:03:40;;;;;;;115.30;63.70;;;;;;;17.05;87.12;100842.13;5025287;28;20409;-63
2021/07/25 03:06:06;;;;;;;119.88;65.13;;;;;;;17.05;86.95;100841.25;5025655;28;20033;-63
2021/07/25 03:08:32;;;;;;;114.30;63.80;;;;;;;17.06;86.98;100845.66;5025598;28;20034;-63
2021/07/25 03:10:57;;;;;;;105.28;60.00;;;;;;;17.06;86.98;100843.84;5025470;28;20030;-63
2021/07/25 03:13:22;;;;;;;113.95;62.03;;;;;;;17.07;86.97;100840.31;5025339;28;20050;-63
2021/07/25 03:15:48;;;;;;;115.38;62.88;;;;;;;17.08;86.87;100846.47;5028107;28;20038;-63
2021/07/25 03:18:13;;;;;;;117.10;65.00;;;;;;;17.05;86.55;100852.75;5025221;28;20045;-64
2021/07/25 03:20:38;;;;;;;123.20;64.25;;;;;;;17.03;86.99;100848.38;5025294;28;20026;-64
2021/07/25 03:23:04;;;;;;;125.55;63.78;;;;;;;17.01;87.05;100844.91;5025225;28;20041;-64
2021/07/25 03:25:29;;;;;;;115.93;65.32;;;;;;;16.99;87.23;100850.25;5007498;28;20034;-64
2021/07/25 03:27:55;;;;;;;112.70;64.03;;;;;;;17.01;87.12;100856.38;5025162;28;20041;-63
2021/07/25 03:30:20;;;;;;;113.60;62.22;;;;;;;17.03;86.85;100859.00;5025225;28;20041;-64
2021/07/25 03:32:45;;;;;;;108.43;60.83;;;;;;;17.03;87.05;100851.94;5026354;28;20029;-63
2021/07/25 03:35:11;;;;;;;114.75;62.25;;;;;;;17.04;87.05;100858.09;5029236;28;20057;-63
2021/07/25 03:37:41;;;;;;;114.53;63.08;;;;;;;17.03;86.90;100845.72;5029180;28;20037;-63
2021/07/25 03:40:08;;;;;;;108.25;61.15;;;;;;;17.02;86.85;100847.53;5035229;28;20125;-64
2021/07/25 03:42:33;;;;;;;107.43;62.70;;;;;;;17.01;86.96;100851.06;5029144;28;20489;-64
2021/07/25 03:44:59;;;;;;;105.85;61.17;;;;;;;17.01;86.93;100844.91;5029047;28;20061;-63
2021/07/25 03:47:24;;;;;;;109.18;61.47;;;;;;;16.99;86.81;100831.69;5029072;28;20034;-63
2021/07/25 03:49:49;;;;;;;113.18;60.55;;;;;;;16.98;86.83;100826.44;5029008;28;20440;-64
2021/07/25 03:52:15;;;;;;;107.45;60.65;;;;;;;16.95;87.14;100827.38;5029058;28;20064;-67
2021/07/25 03:54:43;;;;;;;99.35;59.33;;;;;;;16.95;86.86;100833.53;5028653;28;20505;-64
2021/07/25 03:57:10;;;;;;;106.45;59.90;;;;;;;16.93;86.74;100829.19;5028880;28;20038;-64
2021/07/25 03:59:37;;;;;;;110.53;60.58;;;;;;;16.89;86.79;100831.06;5028669;28;20076;-63
2021/07/25 04:02:04;;;;;;;102.28;57.10;;;;;;;16.88;86.84;100821.38;5029052;28;20026;-63
2021/07/25 04:04:30;;;;;;;94.65;55.95;;;;;;;16.90;86.96;100819.56;5028654;28;20029;-63
2021/07/25 04:06:56;;;;;;;100.20;58.17;;;;;;;16.92;87.02;100814.22;5028706;28;20090;-63
2021/07/25 04:09:21;;;;;;;93.68;55.53;;;;;;;16.93;86.96;100818.59;5037256;28;20034;-63
2021/07/25 04:11:54;;;;;;;93.75;53.00;;;;;;;16.92;86.89;100815.06;5048195;28;20041;-64
2021/07/25 04:14:20;;;;;;;90.68;52.45;;;;;;;16.92;86.59;100814.22;5048320;28;20041;-64
2021/07/25 04:16:45;;;;;;;95.80;54.90;;;;;;;16.90;86.51;100813.34;5048219;28;20024;-63
2021/07/25 04:19:11;;;;;;;94.20;52.78;;;;;;;16.88;86.66;100818.72;5048178;28;20064;-63
2021/07/25 04:21:36;;;;;;;93.18;52.88;;;;;;;16.88;86.65;100812.53;5048240;28;20044;-63
2021/07/25 04:24:01;;;;;;;97.43;54.80;;;;;;;16.85;86.76;100820.59;5048260;28;20040;-63
2021/07/25 04:26:27;;;;;;;85.85;52.08;;;;;;;16.86;86.75;100817.00;5047994;28;20029;-63
2021/07/25 04:28:53;;;;;;;83.50;51.25;;;;;;;16.88;86.76;100820.50;5048230;28;20029;-63
2021/07/25 04:31:18;;;;;;;90.43;50.28;;;;;;;16.88;86.80;100816.06;5047925;28;20075;-63
2021/07/25 04:33:44;;;;;;;87.10;51.30;;;;;;;16.89;86.54;100817.78;5048052;28;20045;-63
2021/07/25 04:36:24;;;;;;;86.60;50.67;;;;;;;16.90;86.48;100819.56;5047941;28;20025;-63
2021/07/25 04:38:49;;;;;;;83.20;50.00;;;;;;;16.93;86.59;100821.25;5046551;28;20076;-63
2021/07/25 04:41:19;;;;;;;86.32;50.30;;;;;;;16.93;86.48;100821.25;5033425;28;20037;-63
2021/07/25 04:43:45;;;;;;;80.13;47.63;;;;;;;16.94;86.63;100823.84;5027697;28;20037;-63
2021/07/25 04:46:14;;;;;;;83.60;49.55;;;;;;;16.96;86.66;100821.16;5027791;28;20030;-63
2021/07/25 04:48:54;;;;;;;82.88;50.35;;;;;;;16.98;86.55;100821.97;5027811;28;20022;-63
2021/07/25 04:51:21;;;;;;;85.53;50.13;;;;;;;16.99;86.53;100823.72;5027942;28;20021;-63
2021/07/25 04:53:49;;;;;;;83.82;49.10;;;;;;;17.01;86.65;100823.66;5027643;28;20126;-63
2021/07/25 04:56:16;;;;;;;82.00;48.23;;;;;;;17.03;86.62;100830.69;5027677;28;20034;-64
2021/07/25 04:58:53;;;;;;;81.32;49.15;;;;;;;17.09;86.56;100829.66;5027765;28;20041;-64
2021/07/25 05:01:28;;;;;;;82.00;47.60;;;;;;;17.11;86.73;100819.84;5027715;28;20486;-63
2021/07/25 05:03:54;;;;;;;83.05;48.47;;;;;;;17.13;86.57;100824.19;5027719;28;20026;-63
2021/07/25 05:06:22;;;;;;;77.13;46.53;;;;;;;17.17;86.71;100821.47;5027339;28;20069;-64
2021/07/25 05:08:47;;;;;;;70.55;44.40;;;;;;;17.16;86.43;100815.25;5031100;28;20044;-62
2021/07/25 05:11:21;;;;;;;61.30;38.28;;;;;;;17.19;85.61;100815.19;5047158;28;20033;-65
2021/07/25 05:13:54;;;;;;;61.67;38.92;;;;;;;17.21;85.43;100831.06;5047398;28;20029;-64
2021/07/25 05:16:40;;;;;;;61.83;39.25;;;;;;;17.21;85.78;100818.66;5047105;28;20021;-63
2021/07/25 05:19:33;;;;;;;62.05;38.50;;;;;;;17.23;85.65;100835.41;5047246;28;20021;-64
2021/07/25 05:22:28;;;;;;;58.10;37.05;;;;;;;17.27;85.70;100839.72;5047017;28;20052;-64
2021/07/25 05:24:54;;;;;;;46.75;31.73;;;;;;;17.29;84.65;100839.66;5047114;28;20060;-63
2021/07/25 05:27:23;;;;;;;49.50;31.98;;;;;;;17.32;84.69;100840.44;5029195;28;20025;-64
2021/07/25 05:29:50;;;;;;;48.85;31.40;;;;;;;17.35;84.64;100839.47;5046810;28;20048;-65
2021/07/25 05:32:16;;;;;;;51.28;34.50;;;;;;;17.39;85.07;100843.81;5047069;28;20176;-64
2021/07/25 05:34:42;;;;;;;50.30;32.00;;;;;;;17.42;85.10;100835.72;5046945;28;20033;-63
2021/07/25 05:37:07;;;;;;;48.42;31.65;;;;;;;17.45;84.88;100840.97;5046671;28;20029;-63
2021/07/25 05:39:32;;;;;;;45.17;29.63;;;;;;;17.50;84.50;100838.16;5044860;28;20053;-63
2021/07/25 05:41:58;;;;;;;42.45;30.13;;;;;;;17.56;84.86;100843.31;5046566;28;20025;-63
2021/07/25 05:44:23;;;;;;;46.72;31.73;;;;;;;17.60;84.73;100844.94;5046647;28;20036;-63
2021/07/25 05:46:48;;;;;;;44.65;30.33;;;;;;;17.64;84.77;100840.41;5046464;28;20026;-63
2021/07/25 05:49:14;;;;;;;39.75;26.95;;;;;;;17.68;84.10;100842.03;5046520;28;20022;-62
2021/07/25 05:51:39;;;;;;;39.85;26.77;;;;;;;17.73;84.01;100842.75;5046558;28;20116;-63
2021/07/25 05:54:05;;;;;;;38.42;25.95;;;;;;;17.79;83.98;100844.34;5046297;28;20076;-64
2021/07/25 05:56:30;;;;;;;33.40;23.60;;;;;;;17.83;83.10;100835.38;5045503;28;20033;-63
2021/07/25 05:58:55;;;;;;;29.83;22.13;;;;;;;17.87;83.16;100834.38;5028761;28;20053;-64
2021/07/25 06:01:21;;;;;;;28.13;20.23;;;;;;;17.93;82.75;100835.03;5046415;28;20032;-64
2021/07/25 06:03:47;;;;;;;33.65;21.20;;;;;;;17.97;82.43;100838.47;5046261;28;20112;-64
2021/07/25 06:06:12;;;;;;;26.58;19.30;;;;;;;18.02;81.69;100830.38;5046301;28;20025;-63
2021/07/25 06:08:38;;;;;;;27.67;18.85;;;;;;;18.07;81.98;100844.34;5043779;28;20163;-65
2021/07/25 06:11:03;;;;;;;25.70;19.42;;;;;;;18.11;82.63;100846.88;5027764;28;20072;-64
2021/07/25 06:13:29;;;;;;;25.02;17.73;;;;;;;18.14;81.33;100848.56;5046138;28;20064;-63
2021/07/25 06:15:54;;;;;;;25.58;18.15;;;;;;;18.15;81.74;100846.75;5046116;28;20033;-63
2021/07/25 06:18:19;;;;;;;23.35;16.70;;;;;;;18.17;79.96;100850.28;5045948;28;20029;-65
2021/07/25 06:20:44;;;;;;;27.15;17.23;;;;;;;18.23;81.31;100850.91;5045856;28;20037;-64
2021/07/25 06:23:13;;;;;;;29.65;16.67;;;;;;;18.30;80.58;100844.47;5045877;28;20036;-64
2021/07/25 06:25:38;;;;;;;23.30;17.80;;;;;;;18.47;80.82;100849.22;5045900;28;20112;-63
2021/07/25 06:28:04;;;;;;;21.13;16.10;;;;;;;18.67;79.88;100845.00;5045618;28;20030;-64
2021/07/25 06:30:30;;;;;;;23.63;15.80;;;;;;;18.85;79.61;100841.72;5027794;28;20037;-65
2021/07/25 06:32:57;;;;;;;21.58;16.23;;;;;;;19.05;79.84;100840.09;5045803;28;20084;-65
2021/07/25 06:35:26;;;;;;;24.55;16.67;;;;;;;19.32;78.79;100832.91;5045742;28;20089;-64
2021/07/25 06:37:52;;;;;;;22.98;16.20;;;;;;;19.56;77.99;100832.84;5045508;28;20030;-64
2021/07/25 06:40:18;;;;;;;21.40;15.20;;;;;;;19.79;75.81;100830.19;5043480;28;20049;-64
2021/07/25 06:42:43;;;;;;;22.02;14.60;;;;;;;20.01;75.41;100831.97;5045489;28;20033;-64
2021/07/25 06:45:10;;;;;;;21.40;15.38;;;;;;;20.16;74.12;100834.00;5045418;28;20029;-64
2021/07/25 06:47:36;;;;;;;19.27;15.00;;;;;;;20.27;74.73;100833.56;5045146;28;20044;-65
2021/07/25 06:50:01;;;;;;;24.67;15.48;;;;;;;20.42;74.01;100829.38;5045374;28;20112;-64
2021/07/25 06:52:26;;;;;;;18.42;15.38;;;;;;;20.60;73.53;100825.06;5045379;28;20049;-63
2021/07/25 06:54:52;;;;;;;21.73;15.90;;;;;;;20.74;73.56;100822.66;5045041;28;20053;-64
2021/07/25 06:57:17;;;;;;;20.77;14.57;;;;;;;20.90;73.71;100825.50;5045305;28;20041;-63
2021/07/25 06:59:42;;;;;;;19.63;14.25;;;;;;;21.08;72.56;100825.59;5045124;28;20034;-64
2021/07/25 07:02:08;;;;;;;20.02;13.15;;;;;;;21.22;72.57;100829.38;5045045;28;20021;-64
2021/07/25 07:04:33;;;;;;;20.92;15.80;;;;;;;21.31;72.14;100821.88;5045247;28;20040;-63
2021/07/25 07:06:58;;;;;;;21.45;15.43;;;;;;;21.37;71.44;100830.47;5044822;28;20026;-63
2021/07/25 07:09:24;;;;;;;24.02;15.07;;;;;;;21.40;72.11;100829.47;5042599;28;20041;-64
2021/07/25 07:11:49;;;;;;;20.48;15.20;;;;;;;21.43;71.72;100827.50;5044821;28;20033;-66
2021/07/25 07:14:14;;;;;;;20.83;14.95;;;;;;;21.55;70.74;100820.75;5027295;28;20092;-63
2021/07/25 07:16:40;;;;;;;22.17;15.15;;;;;;;21.67;70.41;100816.63;5044990;28;20034;-64
2021/07/25 07:19:05;;;;;;;22.52;15.43;;;;;;;21.74;70.98;100817.19;5044639;28;20118;-65
2021/07/25 07:21:31;;;;;;;23.55;15.93;;;;;;;21.79;69.91;100820.50;5044946;28;20760;-65
2021/07/25 07:23:56;;;;;;;23.83;15.18;;;;;;;21.79;70.85;100823.16;5043427;28;20048;-64
2021/07/25 07:26:22;;;;;;;21.60;16.00;;;;;;;21.82;70.61;100823.03;5025552;28;20038;-64
2021/07/25 07:28:48;;;;;;;22.08;15.88;;;;;;;21.77;69.52;100823.22;5024951;28;20036;-64
2021/07/25 07:31:13;;;;;;;23.45;16.30;;;;;;;21.76;69.91;100826.00;5024996;28;20042;-64
2021/07/25 07:33:38;;;;;;;23.92;15.77;;;;;;;21.70;70.39;100829.84;5024992;28;20030;-64
2021/07/25 07:36:04;;;;;;;21.45;15.57;;;;;;;21.66;69.42;100825.56;5025071;28;20034;-65
2021/07/25 07:38:30;;;;;;;22.10;15.02;;;;;;;21.68;70.24;100828.16;5024684;28;20545;-64
2021/07/25 07:40:55;;;;;;;21.17;15.10;;;;;;;21.72;68.91;100830.63;5038203;28;20033;-64
2021/07/25 07:43:22;;;;;;;21.58;15.30;;;;;;;21.91;69.48;100827.94;5044670;28;20026;-64
2021/07/25 07:45:49;;;;;;;20.90;14.43;;;;;;;22.08;68.90;100835.13;5030577;28;20037;-64
2021/07/25 07:48:15;;;;;;;22.02;15.27;;;;;;;22.18;68.81;100836.38;5024815;28;20030;-65
2021/07/25 07:50:42;;;;;;;16.58;13.05;;;;;;;22.34;67.66;100839.19;5007235;28;20049;-63
2021/07/25 07:53:08;;;;;;;23.85;15.48;;;;;;;22.41;67.31;100837.06;5024938;28;20026;-65
2021/07/25 07:55:33;;;;;;;20.77;15.38;;;;;;;22.50;68.29;100835.72;5024522;28;20054;-64
2021/07/25 07:57:59;;;;;;;21.48;14.82;;;;;;;22.67;68.24;100840.22;5024519;28;20150;-65
2021/07/25 08:00:24;;;;;;;22.38;15.75;;;;;;;22.88;67.76;100840.88;5024783;28;20041;-63
2021/07/25 08:02:50;;;;;;;22.73;15.02;;;;;;;23.08;65.21;100835.38;5024854;28;20054;-64
2021/07/25 08:05:18;;;;;;;21.00;15.60;;;;;;;23.25;65.78;100842.50;5024743;28;20038;-65
2021/07/25 08:07:43;;;;;;;22.08;16.00;;;;;;;23.38;63.52;100842.66;5037911;28;20022;-64
2021/07/25 08:10:09;;;;;;;18.77;14.43;;;;;;;23.47;63.34;100838.59;5039082;28;20030;-65
2021/07/25 08:12:35;;;;;;;22.17;15.07;;;;;;;23.63;64.51;100839.50;5024481;28;20113;-64
2021/07/25 08:15:02;;;;;;;19.35;13.73;;;;;;;23.80;62.13;100835.00;5024507;28;20038;-64
2021/07/25 08:17:27;;;;;;;19.23;13.85;;;;;;;23.94;62.83;100835.06;5023324;28;20026;-65
2021/07/25 08:19:54;;;;;;;20.08;13.82;;;;;;;24.09;61.61;100836.88;5026987;28;20054;-65
2021/07/25 08:22:19;;;;;;;18.15;13.95;;;;;;;24.12;60.59;100844.75;5028312;28;20037;-64
2021/07/25 08:24:44;;;;;;;21.85;13.88;;;;;;;24.03;61.76;100839.06;5028169;28;20066;-64
2021/07/25 08:27:10;;;;;;;18.45;13.20;;;;;;;24.00;61.24;100840.06;5029383;28;20044;-64
2021/07/25 08:29:37;;;;;;;21.02;13.95;;;;;;;23.98;61.45;100846.50;5020003;28;20038;-64
2021/07/25 08:32:03;;;;;;;16.40;11.93;;;;;;;24.02;60.82;100848.91;5027981;28;20618;-64
2021/07/25 08:34:29;;;;;;;20.40;12.85;;;;;;;23.98;60.29;100850.03;5028167;28;20137;-63
2021/07/25 08:36:54;;;;;;;18.83;13.25;;;;;;;23.78;61.00;100856.53;5027685;28;20065;-64
2021/07/25 08:39:20;;;;;;;19.70;14.55;;;;;;;23.70;60.75;100850.72;5029858;28;20022;-63
2021/07/25 08:42:04;;;;;;;18.25;13.63;;;;;;;23.66;61.53;100852.72;5012142;28;20041;-65
2021/07/25 08:44:49;;;;;;;15.13;12.25;;;;;;;23.63;62.23;100852.00;5027896;28;20041;-63
2021/07/25 08:47:18;;;;;;;17.23;13.38;;;;;;;23.66;60.52;100847.34;5027747;28;20080;-64
2021/07/25 08:49:54;;;;;;;20.50;14.35;;;;;;;23.74;60.70;100850.47;5027374;28;20025;-64
2021/07/25 08:52:31;;;;;;;16.95;14.07;;;;;;;23.75;59.64;100859.38;5027546;28;20026;-66
2021/07/25 08:54:58;;;;;;;20.92;14.00;;;;;;;23.72;60.40;100859.53;5027419;28;20049;-64
2021/07/25 08:57:28;;;;;;;17.30;12.55;;;;;;;23.79;61.53;100855.59;5027319;28;20498;-64
2021/07/25 08:59:54;;;;;;;18.75;12.75;;;;;;;23.87;60.54;100853.34;5027373;28;20029;-64
2021/07/25 09:02:25;;;;;;;18.02;13.60;;;;;;;24.00;61.29;100853.50;5027386;28;20033;-64
2021/07/25 09:04:52;;;;;;;13.90;11.13;;;;;;;24.11;57.78;100860.94;5028511;28;20556;-63
2021/07/25 09:07:19;;;;;;;14.15;10.82;;;;;;;24.19;58.36;100853.28;5046818;28;20096;-62
2021/07/25 09:09:46;;;;;;;19.83;13.90;;;;;;;24.15;58.01;100857.13;5043664;28;20034;-63
2021/07/25 09:12:14;;;;;;;19.00;15.20;;;;;;;24.12;58.97;100862.66;5027851;28;20034;-63
2021/07/25 09:14:45;;;;;;;19.20;14.93;;;;;;;24.06;58.48;100863.00;5027214;28;20429;-62
2021/07/25 09:17:11;;;;;;;23.20;17.23;;;;;;;23.99;61.16;100870.56;5027046;28;20125;-63
2021/07/25 09:20:15;;;;;;;27.05;17.90;;;;;;;23.88;59.80;100868.50;5026799;28;20080;-63
2021/07/25 09:22:49;;;;;;;23.40;16.80;;;;;;;23.90;60.10;100876.47;5027196;28;20029;-63
2021/07/25 09:25:20;;;;;;;26.20;18.25;;;;;;;23.79;59.88;100871.69;5027176;28;20038;-63
2021/07/25 09:28:06;;;;;;;26.73;17.75;;;;;;;23.65;62.48;100885.00;5026804;28;20029;-63
2021/07/25 09:30:32;;;;;;;25.65;19.17;;;;;;;23.37;63.44;100882.97;5019429;28;20041;-64
2021/07/25 09:32:57;;;;;;;23.13;16.85;;;;;;;23.24;61.45;100886.31;5027102;28;20117;-64
2021/07/25 09:35:29;;;;;;;28.63;19.77;;;;;;;23.14;60.95;100887.75;5026884;28;20456;-64
2021/07/25 09:38:19;;;;;;;23.83;18.67;;;;;;;23.10;62.10;100886.16;5026643;28;20050;-64
2021/07/25 09:40:46;;;;;;;25.02;19.35;;;;;;;23.03;62.12;100888.31;5029749;28;20088;-64
2021/07/25 09:43:14;;;;;;;30.23;22.20;;;;;;;22.89;62.52;100886.34;5009331;28;20421;-64
2021/07/25 09:45:54;;;;;;;30.33;21.02;;;;;;;22.84;63.20;100882.19;5026556;28;20049;-64
2021/07/25 09:48:27;;;;;;;27.27;19.30;;;;;;;22.83;63.89;100893.84;5029200;28;20041;-64
2021/07/25 09:50:56;;;;;;;32.88;20.50;;;;;;;22.81;62.94;100888.53;5026176;28;20037;-63
2021/07/25 09:53:21;;;;;;;27.25;20.42;;;;;;;22.84;62.54;100885.72;5026541;28;20034;-63
2021/07/25 09:55:47;;;;;;;29.95;21.88;;;;;;;22.81;63.87;100888.53;5026240;28;20053;-63
2021/07/25 09:58:13;;;;;;;28.77;21.35;;;;;;;22.91;62.56;100895.19;5008787;28;20022;-63
2021/07/25 10:00:43;;;;;;;33.63;23.25;;;;;;;23.04;63.04;100894.53;5041916;28;20511;-63
2021/07/25 10:03:17;;;;;;;29.08;21.33;;;;;;;23.06;62.95;100888.19;5042731;28;20040;-63
2021/07/25 10:05:43;;;;;;;25.98;20.27;;;;;;;23.05;60.67;100891.78;5028196;28;20037;-64
2021/07/25 10:08:17;;;;;;;27.70;19.48;;;;;;;22.89;60.89;100891.72;5045827;28;20041;-64
2021/07/25 10:10:47;;;;;;;29.17;19.63;;;;;;;22.98;61.35;100891.19;5045865;28;20505;-63
2021/07/25 10:13:18;;;;;;;27.10;19.65;;;;;;;22.97;61.50;100889.47;5045901;28;20036;-63
2021/07/25 10:15:53;;;;;;;29.13;21.50;;;;;;;22.88;60.59;100895.31;5045695;28;20087;-63
2021/07/25 10:18:21;;;;;;;31.85;21.05;;;;;;;22.77;62.13;100885.16;5045862;28;20033;-64
2021/07/25 10:20:47;;;;;;;24.75;18.13;;;;;;;22.77;60.01;100890.53;5045443;28;20033;-64
2021/07/25 10:23:16;;;;;;;26.52;18.35;;;;;;;22.75;59.47;100887.06;5045916;28;20116;-64
2021/07/25 10:25:48;;;;;;;18.63;13.23;;;;;;;22.93;59.84;100879.00;5045612;28;20029;-64
2021/07/25 10:28:18;;;;;;;24.75;18.35;;;;;;;23.20;59.43;100878.53;5045577;28;20040;-64
2021/07/25 10:30:44;;;;;;;34.20;22.67;;;;;;;23.38;57.99;100876.66;5038331;28;20029;-64
2021/07/25 10:33:10;;;;;;;25.67;18.70;;;;;;;23.52;59.10;100883.00;5030163;28;20120;-64
2021/07/25 10:35:36;;;;;;;22.48;15.80;;;;;;;23.69;58.33;100874.00;5025352;28;20057;-63
2021/07/25 10:38:03;;;;;;;25.00;17.02;;;;;;;23.83;56.83;100883.97;5025718;28;20062;-64
2021/07/25 10:40:30;;;;;;;29.10;19.13;;;;;;;23.92;56.79;100882.59;5029053;28;20068;-64
2021/07/25 10:42:55;;;;;;;25.08;18.38;;;;;;;24.06;54.82;100882.66;5025128;28;20034;-64
2021/07/25 10:45:20;;;;;;;19.70;14.68;;;;;;;24.08;55.96;100877.22;5025204;28;20030;-64
2021/07/25 10:47:47;;;;;;;27.15;18.38;;;;;;;24.15;55.86;100883.97;5025530;28;20022;-64
2021/07/25 10:50:21;;;;;;;23.98;17.05;;;;;;;24.20;56.02;100881.03;5032539;28;20037;-64
2021/07/25 10:52:49;;;;;;;21.75;15.88;;;;;;;24.24;56.85;100875.38;5044941;28;20084;-64
2021/07/25 10:55:42;;;;;;;23.67;17.60;;;;;;;24.30;56.49;100876.84;5045288;28;20053;-64
2021/07/25 10:58:09;;;;;;;20.30;14.32;;;;;;;24.43;54.91;100879.66;5045208;28;20037;-64
2021/07/25 11:00:51;;;;;;;19.13;13.90;;;;;;;24.26;53.10;100878.84;5038098;28;20069;-62
2021/07/25 11:03:26;;;;;;;15.30;12.00;;;;;;;24.28;53.43;100873.38;5025301;28;20061;-63
2021/07/25 11:06:11;;;;;;;12.77;9.68;;;;;;;24.34;53.36;100881.06;5025086;28;20097;-64
2021/07/25 11:08:43;;;;;;;16.60;13.35;;;;;;;24.45;52.40;100878.59;5025382;28;20045;-63
2021/07/25 11:11:29;;;;;;;21.45;14.57;;;;;;;24.35;53.07;100882.81;5025098;28;20057;-62